createdAt,value
2023-04-09T00:00:25.267Z,9.38
2023-04-09T00:01:25.255Z,9.37
2023-04-09T00:02:25.279Z,9.38
2023-04-09T00:03:25.344Z,9.37
2023-04-09T00:04:25.266Z,9.37
2023-04-09T00:05:25.208Z,9.38
2023-04-09T00:06:25.188Z,9.37
2023-04-09T00:07:25.175Z,9.37
2023-04-09T00:08:25.162Z,9.38
2023-04-09T00:09:25.147Z,9.38
2023-04-09T00:10:25.136Z,9.37
2023-04-09T00:11:25.120Z,9.38
2023-04-09T00:12:25.109Z,9.37
2023-04-09T00:13:35.559Z,9.33
2023-04-09T00:14:26.147Z,9.37
2023-04-09T00:15:31.200Z,9.34
2023-04-09T00:16:26.127Z,9.37
2023-04-09T00:17:25.056Z,9.37
2023-04-09T00:18:25.032Z,9.38
2023-04-09T00:19:25.015Z,9.37
2023-04-09T00:20:25.007Z,9.37
2023-04-09T00:21:25.004Z,9.37
2023-04-09T00:22:24.976Z,9.37
2023-04-09T00:23:24.968Z,9.37
2023-04-09T00:24:24.956Z,9.34
2023-04-09T00:25:24.936Z,9.34
2023-04-09T00:26:24.925Z,9.34
2023-04-09T00:27:24.908Z,9.34
2023-04-09T00:28:24.898Z,9.33
2023-04-09T00:29:24.886Z,9.34
2023-04-09T00:30:24.906Z,9.34
2023-04-09T00:31:24.887Z,9.33
2023-04-09T00:32:24.882Z,9.34
2023-04-09T00:33:24.831Z,9.33
2023-04-09T00:34:24.821Z,9.31
2023-04-09T00:35:24.806Z,9.31
2023-04-09T00:36:26.666Z,9.33
2023-04-09T00:37:24.779Z,9.33
2023-04-09T00:38:24.768Z,9.33
2023-04-09T00:39:24.766Z,9.33
2023-04-09T00:40:24.751Z,9.33
2023-04-09T00:41:24.734Z,9.33
2023-04-09T00:42:24.721Z,9.33
2023-04-09T00:43:24.699Z,9.33
2023-04-09T00:44:24.691Z,9.33
2023-04-09T00:45:24.738Z,9.33
2023-04-09T00:46:24.687Z,9.34
2023-04-09T00:47:24.719Z,9.31
2023-04-09T00:48:24.639Z,9.31
2023-04-09T00:49:24.624Z,9.31
2023-04-09T00:50:24.615Z,9.31
2023-04-09T00:51:24.602Z,9.31
2023-04-09T00:52:24.583Z,9.33
2023-04-09T00:53:24.580Z,9.33
2023-04-09T00:54:24.557Z,9.31
2023-04-09T00:55:24.542Z,9.33
2023-04-09T00:56:24.531Z,9.31
2023-04-09T00:57:24.517Z,9.33
2023-04-09T00:58:24.507Z,9.31
2023-04-09T00:59:24.491Z,9.31
2023-04-09T01:00:24.483Z,9.31
2023-04-09T01:01:24.519Z,9.31
2023-04-09T01:02:24.622Z,9.31
2023-04-09T01:03:24.492Z,9.31
2023-04-09T01:04:24.428Z,9.31
2023-04-09T01:05:24.437Z,9.31
2023-04-09T01:06:24.405Z,9.31
2023-04-09T01:07:24.383Z,9.31
2023-04-09T01:08:24.372Z,9.31
2023-04-09T01:09:24.359Z,9.33
2023-04-09T01:10:24.347Z,9.31
2023-04-09T01:11:24.336Z,9.30
2023-04-09T01:12:24.323Z,9.31
2023-04-09T01:13:24.305Z,9.30
2023-04-09T01:14:24.292Z,9.29
2023-04-09T01:15:24.284Z,9.31
2023-04-09T01:16:24.305Z,9.30
2023-04-09T01:17:24.280Z,9.29
2023-04-09T01:18:24.365Z,9.30
2023-04-09T01:19:24.226Z,9.29
2023-04-09T01:20:24.223Z,9.30
2023-04-09T01:21:24.200Z,9.29
2023-04-09T01:22:24.187Z,9.30
2023-04-09T01:23:24.177Z,9.30
2023-04-09T01:24:24.171Z,9.30
2023-04-09T01:25:30.152Z,9.29
2023-04-09T01:26:24.135Z,9.29
2023-04-09T01:27:24.120Z,9.30
2023-04-09T01:28:24.109Z,9.30
2023-04-09T01:29:24.107Z,9.30
2023-04-09T01:30:24.097Z,9.30
2023-04-09T01:31:24.066Z,9.30
2023-04-09T01:32:24.085Z,9.29
2023-04-09T01:33:24.042Z,9.30
2023-04-09T01:34:24.055Z,9.31
2023-04-09T01:35:24.014Z,9.29
2023-04-09T01:36:24.019Z,9.29
2023-04-09T01:37:23.989Z,9.29
2023-04-09T01:38:23.977Z,9.29
2023-04-09T01:39:23.972Z,9.30
2023-04-09T01:40:23.953Z,9.29
2023-04-09T01:41:23.945Z,9.29
2023-04-09T01:42:23.927Z,9.30
2023-04-09T01:43:23.924Z,9.29
2023-04-09T01:44:23.908Z,9.30
2023-04-09T01:45:23.898Z,9.29
2023-04-09T01:46:23.889Z,9.30
2023-04-09T01:47:23.873Z,9.29
2023-04-09T01:48:23.855Z,9.27
2023-04-09T01:49:23.852Z,9.27
2023-04-09T01:50:23.848Z,9.27
2023-04-09T01:51:23.818Z,9.27
2023-04-09T01:52:23.825Z,9.29
2023-04-09T01:53:23.789Z,9.29
2023-04-09T01:54:23.774Z,9.30
2023-04-09T01:55:23.756Z,9.30
2023-04-09T01:56:23.755Z,9.31
2023-04-09T01:57:23.732Z,9.30
2023-04-09T01:58:23.724Z,9.29
2023-04-09T01:59:23.755Z,9.29
2023-04-09T02:00:23.691Z,9.29
2023-04-09T02:01:23.743Z,9.29
2023-04-09T02:02:23.729Z,9.29
2023-04-09T02:03:23.738Z,9.29
2023-04-09T02:04:23.643Z,9.30
2023-04-09T02:05:23.626Z,9.29
2023-04-09T02:06:23.637Z,9.30
2023-04-09T02:07:23.608Z,9.29
2023-04-09T02:08:25.087Z,9.29
2023-04-09T02:09:23.575Z,9.30
2023-04-09T02:10:23.564Z,9.30
2023-04-09T02:11:23.545Z,9.29
2023-04-09T02:12:23.540Z,9.30
2023-04-09T02:13:23.530Z,9.27
2023-04-09T02:14:23.507Z,9.29
2023-04-09T02:15:23.503Z,9.29
2023-04-09T02:16:23.485Z,9.29
2023-04-09T02:17:23.506Z,9.29
2023-04-09T02:18:23.455Z,9.27
2023-04-09T02:19:23.441Z,9.27
2023-04-09T02:20:23.438Z,9.27
2023-04-09T02:21:23.414Z,9.27
2023-04-09T02:22:23.428Z,9.26
2023-04-09T02:23:23.395Z,9.27
2023-04-09T02:24:23.378Z,9.27
2023-04-09T02:25:23.363Z,9.27
2023-04-09T02:26:23.361Z,9.27
2023-04-09T02:27:23.358Z,9.27
2023-04-09T02:28:23.330Z,9.27
2023-04-09T02:29:23.310Z,9.26
2023-04-09T02:30:23.297Z,9.27
2023-04-09T02:31:23.336Z,9.26
2023-04-09T02:32:23.313Z,9.26
2023-04-09T02:33:23.257Z,9.26
2023-04-09T02:34:23.248Z,9.26
2023-04-09T02:35:23.237Z,9.27
2023-04-09T02:36:23.220Z,9.27
2023-04-09T02:37:23.206Z,9.27
2023-04-09T02:38:23.218Z,9.26
2023-04-09T02:39:23.187Z,9.26
2023-04-09T02:40:23.168Z,9.27
2023-04-09T02:41:23.156Z,9.26
2023-04-09T02:42:23.155Z,9.26
2023-04-09T02:43:23.130Z,9.27
2023-04-09T02:44:23.123Z,9.27
2023-04-09T02:45:23.102Z,9.26
2023-04-09T02:46:23.122Z,9.26
2023-04-09T02:47:23.100Z,9.26
2023-04-09T02:48:23.089Z,9.26
2023-04-09T02:49:23.052Z,9.26
2023-04-09T02:50:23.040Z,9.24
2023-04-09T02:51:23.023Z,9.24
2023-04-09T02:52:23.023Z,9.26
2023-04-09T02:53:22.997Z,9.26
2023-04-09T02:54:23.018Z,9.24
2023-04-09T02:55:22.976Z,9.24
2023-04-09T02:56:22.961Z,9.26
2023-04-09T02:57:22.946Z,9.27
2023-04-09T02:58:22.937Z,9.26
2023-04-09T02:59:22.922Z,9.27
2023-04-09T03:00:22.917Z,9.26
2023-04-09T03:01:22.931Z,9.24
2023-04-09T03:02:23.215Z,9.26
2023-04-09T03:03:23.062Z,9.26
2023-04-09T03:04:22.902Z,9.24
2023-04-09T03:05:22.856Z,9.26
2023-04-09T03:06:22.837Z,9.26
2023-04-09T03:07:22.819Z,9.26
2023-04-09T03:08:22.806Z,9.23
2023-04-09T03:09:22.793Z,9.26
2023-04-09T03:10:22.815Z,9.24
2023-04-09T03:11:22.776Z,9.24
2023-04-09T03:12:22.752Z,9.26
2023-04-09T03:13:22.745Z,9.24
2023-04-09T03:14:22.745Z,9.24
2023-04-09T03:15:22.725Z,9.26
2023-04-09T03:16:22.780Z,9.26
2023-04-09T03:17:22.685Z,9.24
2023-04-09T03:18:22.679Z,9.24
2023-04-09T03:19:22.681Z,9.24
2023-04-09T03:20:22.798Z,9.24
2023-04-09T03:21:22.652Z,9.24
2023-04-09T03:22:22.632Z,9.26
2023-04-09T03:23:22.631Z,9.24
2023-04-09T03:24:22.600Z,9.24
2023-04-09T03:25:22.589Z,9.24
2023-04-09T03:26:22.598Z,9.23
2023-04-09T03:27:22.557Z,9.26
2023-04-09T03:28:22.556Z,9.26
2023-04-09T03:29:22.532Z,9.23
2023-04-09T03:30:22.533Z,9.23
2023-04-09T03:31:22.593Z,9.23
2023-04-09T03:32:22.551Z,9.23
2023-04-09T03:33:22.495Z,9.23
2023-04-09T03:34:22.463Z,9.24
2023-04-09T03:35:22.468Z,9.24
2023-04-09T03:36:22.438Z,9.24
2023-04-09T03:37:22.428Z,9.23
2023-04-09T03:38:22.437Z,9.23
2023-04-09T03:39:22.399Z,9.23
2023-04-09T03:40:22.386Z,9.24
2023-04-09T03:41:22.382Z,9.24
2023-04-09T03:42:22.386Z,9.24
2023-04-09T03:43:22.351Z,9.22
2023-04-09T03:44:22.335Z,9.24
2023-04-09T03:45:22.333Z,9.23
2023-04-09T03:46:22.320Z,9.23
2023-04-09T03:47:22.333Z,9.23
2023-04-09T03:48:22.297Z,9.24
2023-04-09T03:49:22.268Z,9.23
2023-04-09T03:50:22.270Z,9.23
2023-04-09T03:51:22.250Z,9.23
2023-04-09T03:52:22.254Z,9.23
2023-04-09T03:53:22.219Z,9.22
2023-04-09T03:54:22.204Z,9.24
2023-04-09T03:55:22.200Z,9.24
2023-04-09T03:56:22.181Z,9.23
2023-04-09T03:57:22.166Z,9.24
2023-04-09T03:58:22.189Z,9.24
2023-04-09T03:59:22.136Z,9.24
2023-04-09T04:00:22.123Z,9.24
2023-04-09T04:01:22.121Z,9.26
2023-04-09T04:02:22.269Z,9.23
2023-04-09T04:03:22.358Z,9.26
2023-04-09T04:04:23.807Z,9.24
2023-04-09T04:05:22.065Z,9.26
2023-04-09T04:06:22.054Z,9.23
2023-04-09T04:07:22.036Z,9.24
2023-04-09T04:08:22.017Z,9.23
2023-04-09T04:09:22.007Z,9.23
2023-04-09T04:10:21.992Z,9.23
2023-04-09T04:11:21.982Z,9.24
2023-04-09T04:12:21.967Z,9.26
2023-04-09T04:13:22.002Z,9.26
2023-04-09T04:14:21.973Z,9.26
2023-04-09T04:15:21.928Z,9.24
2023-04-09T04:16:23.441Z,9.26
2023-04-09T04:17:21.942Z,9.24
2023-04-09T04:18:21.890Z,9.24
2023-04-09T04:19:21.875Z,9.23
2023-04-09T04:20:21.870Z,9.23
2023-04-09T04:21:21.856Z,9.23
2023-04-09T04:22:25.581Z,9.22
2023-04-09T04:23:21.823Z,9.22
2023-04-09T04:24:21.828Z,9.23
2023-04-09T04:25:21.801Z,9.22
2023-04-09T04:26:21.783Z,9.22
2023-04-09T04:27:21.776Z,9.22
2023-04-09T04:28:21.759Z,9.23
2023-04-09T04:29:21.762Z,9.22
2023-04-09T04:30:21.760Z,9.22
2023-04-09T04:31:21.747Z,9.22
2023-04-09T04:32:21.708Z,9.23
2023-04-09T04:33:21.695Z,9.23
2023-04-09T04:34:21.698Z,9.22
2023-04-09T04:35:21.703Z,9.20
2023-04-09T04:36:21.654Z,9.20
2023-04-09T04:37:21.661Z,9.20
2023-04-09T04:38:21.635Z,9.22
2023-04-09T04:39:21.615Z,9.24
2023-04-09T04:40:21.605Z,9.23
2023-04-09T04:41:21.591Z,9.24
2023-04-09T04:42:21.575Z,9.23
2023-04-09T04:43:21.566Z,9.23
2023-04-09T04:44:21.559Z,9.22
2023-04-09T04:45:21.539Z,9.22
2023-04-09T04:46:21.602Z,9.22
2023-04-09T04:47:21.528Z,9.22
2023-04-09T04:48:21.500Z,9.22
2023-04-09T04:49:21.492Z,9.22
2023-04-09T04:50:21.487Z,9.23
2023-04-09T04:51:21.469Z,9.22
2023-04-09T04:52:21.448Z,9.22
2023-04-09T04:53:21.435Z,9.23
2023-04-09T04:54:21.419Z,9.23
2023-04-09T04:55:21.488Z,9.22
2023-04-09T04:56:27.415Z,9.22
2023-04-09T04:57:21.385Z,9.22
2023-04-09T04:58:21.371Z,9.20
2023-04-09T04:59:21.355Z,9.22
2023-04-09T05:00:21.360Z,9.20
2023-04-09T05:01:21.347Z,9.22
2023-04-09T05:02:21.516Z,9.20
2023-04-09T05:03:21.373Z,9.19
2023-04-09T05:04:21.302Z,9.19
2023-04-09T05:05:21.278Z,9.20
2023-04-09T05:06:21.278Z,9.20
2023-04-09T05:07:21.278Z,9.23
2023-04-09T05:08:21.256Z,9.22
2023-04-09T05:09:22.470Z,9.22
2023-04-09T05:10:21.209Z,9.22
2023-04-09T05:11:21.218Z,9.23
2023-04-09T05:12:21.181Z,9.23
2023-04-09T05:13:21.198Z,9.24
2023-04-09T05:14:21.178Z,9.23
2023-04-09T05:15:21.213Z,9.22
2023-04-09T05:16:21.186Z,9.22
2023-04-09T05:17:21.175Z,9.23
2023-04-09T05:18:22.657Z,9.23
2023-04-09T05:19:21.108Z,9.23
2023-04-09T05:20:21.095Z,9.23
2023-04-09T05:21:21.068Z,9.23
2023-04-09T05:22:21.055Z,9.22
2023-04-09T05:23:21.043Z,9.24
2023-04-09T05:24:21.026Z,9.23
2023-04-09T05:25:21.015Z,9.22
2023-04-09T05:26:21.010Z,9.23
2023-04-09T05:27:20.989Z,9.24
2023-04-09T05:28:20.976Z,9.23
2023-04-09T05:29:20.962Z,9.22
2023-04-09T05:30:20.954Z,9.23
2023-04-09T05:31:20.936Z,9.22
2023-04-09T05:32:20.948Z,9.22
2023-04-09T05:33:20.918Z,9.23
2023-04-09T05:34:22.437Z,9.22
2023-04-09T05:35:20.884Z,9.23
2023-04-09T05:36:20.877Z,9.23
2023-04-09T05:37:20.861Z,9.22
2023-04-09T05:38:20.850Z,9.22
2023-04-09T05:39:20.837Z,9.23
2023-04-09T05:40:20.822Z,9.22
2023-04-09T05:41:20.812Z,9.22
2023-04-09T05:42:20.795Z,9.22
2023-04-09T05:43:20.788Z,9.22
2023-04-09T05:44:20.770Z,9.23
2023-04-09T05:45:20.770Z,9.23
2023-04-09T05:46:20.888Z,9.22
2023-04-09T05:47:20.795Z,9.22
2023-04-09T05:48:20.720Z,9.23
2023-04-09T05:49:20.711Z,9.20
2023-04-09T05:50:20.731Z,9.22
2023-04-09T05:51:20.684Z,9.22
2023-04-09T05:52:20.668Z,9.23
2023-04-09T05:53:20.663Z,9.22
2023-04-09T05:54:20.650Z,9.23
2023-04-09T05:55:20.643Z,9.23
2023-04-09T05:56:20.622Z,9.24
2023-04-09T05:57:20.606Z,9.23
2023-04-09T05:58:20.600Z,9.24
2023-04-09T05:59:20.577Z,9.26
2023-04-09T06:00:20.564Z,9.26
2023-04-09T06:01:20.553Z,9.26
2023-04-09T06:02:20.868Z,9.26
2023-04-09T06:03:20.801Z,9.24
2023-04-09T06:04:20.628Z,9.24
2023-04-09T06:05:20.507Z,9.24
2023-04-09T06:06:20.508Z,9.24
2023-04-09T06:07:20.479Z,9.24
2023-04-09T06:08:20.457Z,9.26
2023-04-09T06:09:20.448Z,9.26
2023-04-09T06:10:20.438Z,9.26
2023-04-09T06:11:20.421Z,9.26
2023-04-09T06:12:20.407Z,9.26
2023-04-09T06:13:20.396Z,9.26
2023-04-09T06:14:20.389Z,9.26
2023-04-09T06:15:20.372Z,9.29
2023-04-09T06:16:20.466Z,9.26
2023-04-09T06:17:20.407Z,9.27
2023-04-09T06:18:20.328Z,9.26
2023-04-09T06:19:20.322Z,9.26
2023-04-09T06:20:20.348Z,9.29
2023-04-09T06:21:20.291Z,9.29
2023-04-09T06:22:20.305Z,9.27
2023-04-09T06:23:20.269Z,9.29
2023-04-09T06:24:20.253Z,9.29
2023-04-09T06:25:20.389Z,9.29
2023-04-09T06:26:20.239Z,9.29
2023-04-09T06:27:20.229Z,9.29
2023-04-09T06:28:20.204Z,9.29
2023-04-09T06:29:20.915Z,9.29
2023-04-09T06:30:20.174Z,9.30
2023-04-09T06:31:20.175Z,9.30
2023-04-09T06:32:20.145Z,9.30
2023-04-09T06:33:20.186Z,9.30
2023-04-09T06:34:20.118Z,9.30
2023-04-09T06:35:20.108Z,9.30
2023-04-09T06:36:20.098Z,9.30
2023-04-09T06:37:20.080Z,9.29
2023-04-09T06:38:20.094Z,9.31
2023-04-09T06:39:20.071Z,9.31
2023-04-09T06:40:26.054Z,9.31
2023-04-09T06:41:20.038Z,9.31
2023-04-09T06:42:20.016Z,9.33
2023-04-09T06:43:20.001Z,9.31
2023-04-09T06:44:20.025Z,9.31
2023-04-09T06:45:19.997Z,9.33
2023-04-09T06:46:20.154Z,9.33
2023-04-09T06:47:19.954Z,9.31
2023-04-09T06:48:19.935Z,9.34
2023-04-09T06:49:19.930Z,9.34
2023-04-09T06:50:19.908Z,9.34
2023-04-09T06:51:19.898Z,9.37
2023-04-09T06:52:19.886Z,9.37
2023-04-09T06:53:19.893Z,9.37
2023-04-09T06:54:19.885Z,9.37
2023-04-09T06:55:19.847Z,9.37
2023-04-09T06:56:19.833Z,9.38
2023-04-09T06:57:19.818Z,9.38
2023-04-09T06:58:19.809Z,9.38
2023-04-09T06:59:19.805Z,9.38
2023-04-09T07:00:19.784Z,9.38
2023-04-09T07:01:19.808Z,9.38
2023-04-09T07:02:19.911Z,9.38
2023-04-09T07:03:19.860Z,9.38
2023-04-09T07:04:19.800Z,9.38
2023-04-09T07:05:19.720Z,9.38
2023-04-09T07:06:19.705Z,9.39
2023-04-09T07:07:19.708Z,9.39
2023-04-09T07:08:19.675Z,9.38
2023-04-09T07:09:19.663Z,9.41
2023-04-09T07:10:19.711Z,9.39
2023-04-09T07:11:19.639Z,9.39
2023-04-09T07:12:19.629Z,9.39
2023-04-09T07:13:19.654Z,9.39
2023-04-09T07:14:19.596Z,9.41
2023-04-09T07:15:19.592Z,9.41
2023-04-09T07:16:19.675Z,9.39
2023-04-09T07:17:19.568Z,9.41
2023-04-09T07:18:19.544Z,9.39
2023-04-09T07:19:19.815Z,9.41
2023-04-09T07:20:19.522Z,9.39
2023-04-09T07:21:19.512Z,9.39
2023-04-09T07:22:19.491Z,9.41
2023-04-09T07:23:19.481Z,9.41
2023-04-09T07:24:19.468Z,9.38
2023-04-09T07:25:19.485Z,9.39
2023-04-09T07:26:19.468Z,9.41
2023-04-09T07:27:19.435Z,9.39
2023-04-09T07:28:19.413Z,9.41
2023-04-09T07:29:19.406Z,9.39
2023-04-09T07:30:19.389Z,9.41
2023-04-09T07:31:20.879Z,9.41
2023-04-09T07:32:19.664Z,9.38
2023-04-09T07:33:19.349Z,9.39
2023-04-09T07:34:19.334Z,9.39
2023-04-09T07:35:19.322Z,9.39
2023-04-09T07:36:19.339Z,9.39
2023-04-09T07:37:19.296Z,9.39
2023-04-09T07:38:19.281Z,9.39
2023-04-09T07:39:26.832Z,9.39
2023-04-09T07:40:19.257Z,9.41
2023-04-09T07:41:19.245Z,9.41
2023-04-09T07:42:19.267Z,9.39
2023-04-09T07:43:20.778Z,9.42
2023-04-09T07:44:19.221Z,9.39
2023-04-09T07:45:19.204Z,9.41
2023-04-09T07:46:19.240Z,9.42
2023-04-09T07:47:19.171Z,9.41
2023-04-09T07:48:19.156Z,9.42
2023-04-09T07:49:19.148Z,9.41
2023-04-09T07:50:19.136Z,9.42
2023-04-09T07:51:19.116Z,9.44
2023-04-09T07:52:19.104Z,9.44
2023-04-09T07:53:19.094Z,9.44
2023-04-09T07:54:19.076Z,9.42
2023-04-09T07:55:19.063Z,9.45
2023-04-09T07:56:19.051Z,9.45
2023-04-09T07:57:19.053Z,9.45
2023-04-09T07:58:19.050Z,9.45
2023-04-09T07:59:19.010Z,9.47
2023-04-09T08:00:19.005Z,9.45
2023-04-09T08:01:18.982Z,9.45
2023-04-09T08:02:19.067Z,9.47
2023-04-09T08:03:19.373Z,9.47
2023-04-09T08:04:19.128Z,9.47
2023-04-09T08:05:19.080Z,9.47
2023-04-09T08:06:18.928Z,9.48
2023-04-09T08:07:18.910Z,9.49
2023-04-09T08:08:18.897Z,9.51
2023-04-09T08:09:18.880Z,9.51
2023-04-09T08:10:18.869Z,9.55
2023-04-09T08:11:18.854Z,9.52
2023-04-09T08:12:18.845Z,9.55
2023-04-09T08:13:18.829Z,9.56
2023-04-09T08:14:18.840Z,9.56
2023-04-09T08:15:18.803Z,9.57
2023-04-09T08:16:18.849Z,9.56
2023-04-09T08:17:18.777Z,9.57
2023-04-09T08:18:18.766Z,9.59
2023-04-09T08:19:18.750Z,9.59
2023-04-09T08:20:18.743Z,9.60
2023-04-09T08:21:18.725Z,9.60
2023-04-09T08:22:18.717Z,9.60
2023-04-09T08:23:18.699Z,9.60
2023-04-09T08:24:18.716Z,9.62
2023-04-09T08:25:18.671Z,9.60
2023-04-09T08:26:18.670Z,9.59
2023-04-09T08:27:24.651Z,9.59
2023-04-09T08:28:18.655Z,9.59
2023-04-09T08:29:18.619Z,9.59
2023-04-09T08:30:19.028Z,9.57
2023-04-09T08:31:18.602Z,9.59
2023-04-09T08:32:18.663Z,9.59
2023-04-09T08:33:18.567Z,9.57
2023-04-09T08:34:18.555Z,9.59
2023-04-09T08:35:18.541Z,9.59
2023-04-09T08:36:18.534Z,9.59
2023-04-09T08:37:18.515Z,9.57
2023-04-09T08:38:18.502Z,9.59
2023-04-09T08:39:18.488Z,9.59
2023-04-09T08:40:18.477Z,9.57
2023-04-09T08:41:18.462Z,9.57
2023-04-09T08:42:18.451Z,9.57
2023-04-09T08:43:19.941Z,9.57
2023-04-09T08:44:18.431Z,9.59
2023-04-09T08:45:18.414Z,9.60
2023-04-09T08:46:18.495Z,9.57
2023-04-09T08:47:18.386Z,9.56
2023-04-09T08:48:18.425Z,9.59
2023-04-09T08:49:18.358Z,9.57
2023-04-09T08:50:18.352Z,9.56
2023-04-09T08:51:18.340Z,9.57
2023-04-09T08:52:18.320Z,9.56
2023-04-09T08:53:18.306Z,9.56
2023-04-09T08:54:18.294Z,9.55
2023-04-09T08:55:18.280Z,9.55
2023-04-09T08:56:18.270Z,9.55
2023-04-09T08:57:18.259Z,9.55
2023-04-09T08:58:18.242Z,9.52
2023-04-09T08:59:18.230Z,9.52
2023-04-09T09:00:18.215Z,9.52
2023-04-09T09:01:18.212Z,9.52
2023-04-09T09:02:18.245Z,9.52
2023-04-09T09:03:18.328Z,9.52
2023-04-09T09:04:18.200Z,9.49
2023-04-09T09:05:18.148Z,9.51
2023-04-09T09:06:18.135Z,9.51
2023-04-09T09:07:18.119Z,9.51
2023-04-09T09:08:18.137Z,9.52
2023-04-09T09:09:18.095Z,9.52
2023-04-09T09:10:18.088Z,9.52
2023-04-09T09:11:18.067Z,9.55
2023-04-09T09:12:18.056Z,9.51
2023-04-09T09:13:18.040Z,9.52
2023-04-09T09:14:18.031Z,9.52
2023-04-09T09:15:18.017Z,9.51
2023-04-09T09:16:18.042Z,9.52
2023-04-09T09:17:18.013Z,9.52
2023-04-09T09:18:18.001Z,9.55
2023-04-09T09:19:23.970Z,9.52
2023-04-09T09:20:17.949Z,9.55
2023-04-09T09:21:17.937Z,9.56
2023-04-09T09:22:17.930Z,9.57
2023-04-09T09:23:17.921Z,9.57
2023-04-09T09:24:17.897Z,9.57
2023-04-09T09:25:17.884Z,9.59
2023-04-09T09:26:17.878Z,9.57
2023-04-09T09:27:17.857Z,9.60
2023-04-09T09:28:17.844Z,9.60
2023-04-09T09:29:17.829Z,9.62
2023-04-09T09:30:17.817Z,9.63
2023-04-09T09:31:17.976Z,9.65
2023-04-09T09:32:17.851Z,9.65
2023-04-09T09:33:17.778Z,9.63
2023-04-09T09:34:17.826Z,9.65
2023-04-09T09:35:17.751Z,9.63
2023-04-09T09:36:17.745Z,9.63
2023-04-09T09:37:17.728Z,9.63
2023-04-09T09:38:17.719Z,9.63
2023-04-09T09:39:17.768Z,9.65
2023-04-09T09:40:17.695Z,9.65
2023-04-09T09:41:17.674Z,9.65
2023-04-09T09:42:17.665Z,9.65
2023-04-09T09:43:17.653Z,9.65
2023-04-09T09:44:17.638Z,9.66
2023-04-09T09:45:17.624Z,9.63
2023-04-09T09:46:17.645Z,9.63
2023-04-09T09:47:17.598Z,9.65
2023-04-09T09:48:17.586Z,9.65
2023-04-09T09:49:17.572Z,9.65
2023-04-09T09:50:17.641Z,9.65
2023-04-09T09:51:17.554Z,9.66
2023-04-09T09:52:17.536Z,9.66
2023-04-09T09:53:17.518Z,9.67
2023-04-09T09:54:17.507Z,9.66
2023-04-09T09:55:17.491Z,9.65
2023-04-09T09:56:17.480Z,9.66
2023-04-09T09:57:17.469Z,9.66
2023-04-09T09:58:17.466Z,9.65
2023-04-09T09:59:17.443Z,9.66
2023-04-09T10:00:19.352Z,9.66
2023-04-09T10:01:17.459Z,9.66
2023-04-09T10:02:17.420Z,9.66
2023-04-09T10:03:17.424Z,9.67
2023-04-09T10:04:17.410Z,9.66
2023-04-09T10:05:17.359Z,9.66
2023-04-09T10:06:17.375Z,9.67
2023-04-09T10:07:17.334Z,9.67
2023-04-09T10:08:17.342Z,9.69
2023-04-09T10:09:17.305Z,9.69
2023-04-09T10:10:17.312Z,9.69
2023-04-09T10:11:17.295Z,9.67
2023-04-09T10:12:17.310Z,9.69
2023-04-09T10:13:17.269Z,9.69
2023-04-09T10:14:17.246Z,9.69
2023-04-09T10:15:17.227Z,9.70
2023-04-09T10:16:17.285Z,9.70
2023-04-09T10:17:17.204Z,9.72
2023-04-09T10:18:17.216Z,9.70
2023-04-09T10:19:17.227Z,9.70
2023-04-09T10:20:17.166Z,9.70
2023-04-09T10:21:17.148Z,9.70
2023-04-09T10:22:17.233Z,9.72
2023-04-09T10:23:17.125Z,9.74
2023-04-09T10:24:23.146Z,9.74
2023-04-09T10:25:17.096Z,9.75
2023-04-09T10:26:17.082Z,9.75
2023-04-09T10:27:17.517Z,9.75
2023-04-09T10:28:17.057Z,9.77
2023-04-09T10:29:17.120Z,9.75
2023-04-09T10:30:17.032Z,9.77
2023-04-09T10:31:17.061Z,9.75
2023-04-09T10:32:17.014Z,9.77
2023-04-09T10:33:16.988Z,9.77
2023-04-09T10:34:16.977Z,9.75
2023-04-09T10:35:16.961Z,9.77
2023-04-09T10:36:16.979Z,9.77
2023-04-09T10:37:16.934Z,9.79
2023-04-09T10:38:16.952Z,9.79
2023-04-09T10:39:16.913Z,9.79
2023-04-09T10:40:16.897Z,9.79
2023-04-09T10:41:16.888Z,9.81
2023-04-09T10:42:16.871Z,9.81
2023-04-09T10:43:16.858Z,9.81
2023-04-09T10:44:16.845Z,9.81
2023-04-09T10:45:22.842Z,9.82
2023-04-09T10:46:16.870Z,9.79
2023-04-09T10:47:16.804Z,9.79
2023-04-09T10:48:16.797Z,9.79
2023-04-09T10:49:16.807Z,9.79
2023-04-09T10:50:16.766Z,9.79
2023-04-09T10:51:16.753Z,9.81
2023-04-09T10:52:16.741Z,9.79
2023-04-09T10:53:16.728Z,9.81
2023-04-09T10:54:16.738Z,9.82
2023-04-09T10:55:16.702Z,9.83
2023-04-09T10:56:16.692Z,9.83
2023-04-09T10:57:16.689Z,9.83
2023-04-09T10:58:22.683Z,9.85
2023-04-09T10:59:16.656Z,9.83
2023-04-09T11:00:16.636Z,9.83
2023-04-09T11:01:16.620Z,9.82
2023-04-09T11:02:16.713Z,9.82
2023-04-09T11:03:16.730Z,9.82
2023-04-09T11:04:16.601Z,9.82
2023-04-09T11:05:16.576Z,9.82
2023-04-09T11:06:16.557Z,9.85
2023-04-09T11:07:16.543Z,9.85
2023-04-09T11:08:16.537Z,9.83
2023-04-09T11:09:16.521Z,9.85
2023-04-09T11:10:16.540Z,9.85
2023-04-09T11:11:16.491Z,9.86
2023-04-09T11:12:16.479Z,9.86
2023-04-09T11:13:16.468Z,9.85
2023-04-09T11:14:16.451Z,9.86
2023-04-09T11:15:16.435Z,9.86
2023-04-09T11:16:22.881Z,9.86
2023-04-09T11:17:17.488Z,9.88
2023-04-09T11:18:16.397Z,9.86
2023-04-09T11:19:16.383Z,9.86
2023-04-09T11:20:16.426Z,9.86
2023-04-09T11:21:16.361Z,9.86
2023-04-09T11:22:16.343Z,9.85
2023-04-09T11:23:16.348Z,9.85
2023-04-09T11:24:16.324Z,9.86
2023-04-09T11:25:16.299Z,9.88
2023-04-09T11:26:16.320Z,9.86
2023-04-09T11:27:16.275Z,9.86
2023-04-09T11:28:16.288Z,9.86
2023-04-09T11:29:16.264Z,9.86
2023-04-09T11:30:16.248Z,9.88
2023-04-09T11:31:16.270Z,9.86
2023-04-09T11:32:16.217Z,9.88
2023-04-09T11:33:18.224Z,9.86
2023-04-09T11:34:16.214Z,9.88
2023-04-09T11:35:16.198Z,9.86
2023-04-09T11:36:16.191Z,9.88
2023-04-09T11:37:16.156Z,9.88
2023-04-09T11:38:16.190Z,9.91
2023-04-09T11:39:16.119Z,9.89
2023-04-09T11:40:16.108Z,9.89
2023-04-09T11:41:16.091Z,9.88
2023-04-09T11:42:16.127Z,9.89
2023-04-09T11:43:16.068Z,9.89
2023-04-09T11:44:16.050Z,9.91
2023-04-09T11:45:16.040Z,9.93
2023-04-09T11:46:16.038Z,9.91
2023-04-09T11:47:16.010Z,9.91
2023-04-09T11:48:16.017Z,9.91
2023-04-09T11:49:15.984Z,9.91
2023-04-09T11:50:15.972Z,9.91
2023-04-09T11:51:15.959Z,9.91
2023-04-09T11:52:15.943Z,9.93
2023-04-09T11:53:15.932Z,9.93
2023-04-09T11:54:15.921Z,9.91
2023-04-09T11:55:21.911Z,9.91
2023-04-09T11:56:15.895Z,9.91
2023-04-09T11:57:15.878Z,9.93
2023-04-09T11:58:15.898Z,9.91
2023-04-09T11:59:15.854Z,9.91
2023-04-09T12:00:15.844Z,9.91
2023-04-09T12:01:15.835Z,9.91
2023-04-09T12:02:15.916Z,9.91
2023-04-09T12:03:16.174Z,9.94
2023-04-09T12:04:15.950Z,9.94
2023-04-09T12:05:15.876Z,9.94
2023-04-09T12:06:15.760Z,9.94
2023-04-09T12:07:15.750Z,9.94
2023-04-09T12:08:15.735Z,9.94
2023-04-09T12:09:15.724Z,9.94
2023-04-09T12:10:15.709Z,9.94
2023-04-09T12:11:15.705Z,9.94
2023-04-09T12:12:15.706Z,9.94
2023-04-09T12:13:15.671Z,9.94
2023-04-09T12:14:15.686Z,9.94
2023-04-09T12:15:15.645Z,9.94
2023-04-09T12:16:15.662Z,9.94
2023-04-09T12:17:15.620Z,9.96
2023-04-09T12:18:15.605Z,9.94
2023-04-09T12:19:15.600Z,9.96
2023-04-09T12:20:15.581Z,9.96
2023-04-09T12:21:16.602Z,9.97
2023-04-09T12:22:15.588Z,9.97
2023-04-09T12:23:15.544Z,9.97
2023-04-09T12:24:15.525Z,9.99
2023-04-09T12:25:15.516Z,9.97
2023-04-09T12:26:15.498Z,9.99
2023-04-09T12:27:15.490Z,9.96
2023-04-09T12:28:15.494Z,9.97
2023-04-09T12:29:15.465Z,9.97
2023-04-09T12:30:15.470Z,9.97
2023-04-09T12:31:15.447Z,9.96
2023-04-09T12:32:15.442Z,9.97
2023-04-09T12:33:15.411Z,9.97
2023-04-09T12:34:15.395Z,9.97
2023-04-09T12:35:15.380Z,9.97
2023-04-09T12:36:15.365Z,9.97
2023-04-09T12:37:15.353Z,9.96
2023-04-09T12:38:15.339Z,9.97
2023-04-09T12:39:15.332Z,9.97
2023-04-09T12:40:15.316Z,9.97
2023-04-09T12:41:15.303Z,9.97
2023-04-09T12:42:15.318Z,10.00
2023-04-09T12:43:15.285Z,10.00
2023-04-09T12:44:15.262Z,9.99
2023-04-09T12:45:15.250Z,10.00
2023-04-09T12:46:15.297Z,9.99
2023-04-09T12:47:15.222Z,9.97
2023-04-09T12:48:15.210Z,9.99
2023-04-09T12:49:15.203Z,10.01
2023-04-09T12:50:15.184Z,9.99
2023-04-09T12:51:15.179Z,10.00
2023-04-09T12:52:15.165Z,10.00
2023-04-09T12:53:15.142Z,9.99
2023-04-09T12:54:15.127Z,10.00
2023-04-09T12:55:15.117Z,9.99
2023-04-09T12:56:15.115Z,9.99
2023-04-09T12:57:15.090Z,9.99
2023-04-09T12:58:15.083Z,10.01
2023-04-09T12:59:15.068Z,10.00
2023-04-09T13:00:15.056Z,9.99
2023-04-09T13:01:15.104Z,10.03
2023-04-09T13:02:15.249Z,10.03
2023-04-09T13:03:15.187Z,10.00
2023-04-09T13:04:15.111Z,10.01
2023-04-09T13:05:14.984Z,10.01
2023-04-09T13:06:14.970Z,10.03
2023-04-09T13:07:14.960Z,10.03
2023-04-09T13:08:14.944Z,10.04
2023-04-09T13:09:14.936Z,10.03
2023-04-09T13:10:20.922Z,10.04
2023-04-09T13:11:14.905Z,10.03
2023-04-09T13:12:14.949Z,10.04
2023-04-09T13:13:14.883Z,10.04
2023-04-09T13:14:14.867Z,10.04
2023-04-09T13:15:14.856Z,10.04
2023-04-09T13:16:14.872Z,10.06
2023-04-09T13:17:14.904Z,10.04